Sant Hilari Sacalm





Hora UTC 20:35
Temperatura 17.2 ºC
Sòl 15 cm 14.8 ºC
Humitat 86.8 %
Pressió 1021.0 hPa
Pluja 1.3 mm
Velocitat vent 4.4 km/h
Direcció vent WSW
Radiació solar 0.1 W/m²

Dades diàries 2022-08-19



Hora UTC (hivern +1h; estiu +2h)
Temperatura (ºC) Humitat (%) Pressió (hPa) Velocitat vent (km/h) Precipitació (mm) Radiació solar (W/m²)
Hora UTC Aire Sòl 15 cm Humitat Pressió Vel. Dir. Vel. Max Dir. Intent. màx 5 min. Rad. Sol.
00:05 14.2 11.3 81.4 1018.1 5.2 W 5.2 NW 0.0 0.1
00:10 14.1 11.2 83.0 1018.1 5.7 W 14.2 W 0.1 0.1
00:15 14.1 11.2 82.5 1018.0 5.0 W 11.5 WSW 0.0 0.1
00:20 14.0 11.1 83.0 1017.9 4.9 W 11.5 WNW 0.0 0.1
00:25 14.3 11.1 82.1 1017.9 6.6 WSW 14.2 W 0.0 0.1
00:30 14.1 11.1 81.5 1017.9 5.5 WSW 11.5 WSW 0.0 0.1
00:35 13.3 11.0 84.1 1017.8 7.9 SW 11.5 SW 0.0 0.1
00:40 13.0 10.9 86.4 1017.8 8.2 WSW 11.5 WSW 0.0 0.1
00:45 12.8 10.8 87.5 1017.8 7.8 WSW 11.5 WSW 0.0 0.1
00:50 12.8 10.7 88.1 1017.8 5.3 WSW 8.8 WNW 0.0 0.1
00:55 13.0 10.7 87.5 1017.8 5.1 SW 8.8 SW 0.1 0.1
01:00 12.8 10.6 87.7 1017.8 4.6 SW 11.5 WSW 0.0 0.1
01:05 12.8 10.6 88.0 1017.8 2.4 SW 6.1 SSW 0.0 0.1
01:10 12.8 10.5 88.0 1017.8 2.8 W 8.8 W 0.0 0.1
01:15 12.7 10.6 87.6 1017.8 5.3 W 8.8 W 0.0 0.1
01:20 12.8 10.5 87.4 1017.7 4.1 WSW 8.8 SW 0.0 0.1
01:25 12.6 10.4 88.1 1017.7 5.7 WSW 8.8 SW 0.0 0.1
01:30 12.4 10.3 88.7 1017.7 6.2 WSW 8.8 SW 0.0 0.1
01:35 12.3 10.2 88.4 1017.6 5.4 WSW 8.8 WSW 0.0 0.1
01:40 12.3 10.1 88.3 1017.6 4.4 WSW 11.5 SW 0.0 0.1
01:45 12.5 10.0 87.2 1017.6 4.3 W 11.5 WSW 0.0 0.1
01:50 12.9 10.1 85.6 1017.6 7.1 NW 14.2 NNW 0.0 0.1
01:55 14.0 11.0 79.7 1017.7 8.9 NNW 14.2 NNW 0.0 0.1
02:00 14.2 11.4 77.7 1017.8 9.2 NNW 16.9 NNW 0.0 0.1
02:05 14.4 11.7 78.9 1017.9 9.2 NNW 16.9 NNW 0.0 0.1
02:10 14.8 12.2 77.7 1017.9 11.5 NNW 22.3 N 0.1 0.1
02:15 15.2 12.7 76.2 1017.9 11.3 NNW 19.6 NW 0.0 0.1
02:20 15.4 13.0 74.7 1018.0 8.8 NW 19.6 N 0.0 0.1
02:25 15.5 13.1 73.7 1017.9 7.8 WNW 14.2 WNW 0.0 0.1
02:30 15.3 13.0 75.0 1017.9 7.7 NW 14.2 W 0.0 0.1
02:35 15.0 13.0 77.3 1017.9 10.0 NNW 19.6 NNW 0.0 0.1
02:40 14.9 13.0 78.6 1017.8 10.1 NW 22.3 W 0.0 0.1
02:45 14.8 12.9 79.0 1017.7 7.1 NW 14.2 WNW 0.0 0.1
02:50 14.5 12.7 80.5 1017.7 8.7 NNW 16.9 NW 0.0 0.1
02:55 14.4 12.6 82.0 1017.7 9.6 NW 16.9 NW 0.0 0.1
03:00 14.4 12.6 81.9 1017.7 8.5 NW 16.9 WNW 0.0 0.1
03:05 14.4 12.6 82.0 1017.7 8.1 NW 16.9 NW 0.1 0.1
03:10 14.4 12.5 81.9 1017.7 7.9 NW 16.9 NW 0.0 0.1
03:15 14.4 12.4 81.5 1017.7 8.5 WNW 16.9 WNW 0.0 0.1
03:20 14.4 12.4 81.3 1017.7 7.7 NW 16.9 W 0.0 0.1
03:25 14.5 12.5 80.8 1017.7 9.1 NW 16.9 NW 0.0 0.1
03:30 14.4 12.6 81.1 1017.7 10.4 NNW 19.6 NW 0.0 0.1
03:35 14.5 12.7 80.7 1017.7 11.1 NW 22.3 W 0.0 0.1
03:40 14.7 12.9 79.1 1017.8 10.9 NW 22.3 NNW 0.0 0.1
03:45 14.7 12.9 79.3 1017.8 9.9 NW 22.3 N 0.0 0.1
03:50 14.5 12.8 80.2 1017.9 10.4 NW 22.3 NW 0.0 0.1
03:55 14.4 12.7 81.5 1017.9 9.8 WNW 19.6 NW 0.0 0.1
04:00 14.4 12.7 81.5 1018.0 10.6 WNW 25.0 W 0.0 0.1
04:05 14.3 12.6 81.9 1018.0 9.6 WNW 19.6 NW 0.0 0.1
04:10 14.3 12.5 82.0 1018.0 9.0 NW 19.6 WNW 0.0 0.1
04:15 14.2 12.4 82.4 1018.1 10.4 NW 19.6 W 0.0 0.1
04:20 14.1 12.4 83.0 1018.1 10.1 WNW 25.0 NW 0.0 0.1
04:25 14.0 12.3 83.7 1018.1 7.1 NW 14.2 W 0.0 0.1
04:30 13.9 12.2 84.8 1018.1 9.4 WNW 22.3 W 0.0 0.1
04:35 14.0 12.2 84.6 1018.2 8.8 WNW 19.6 WSW 0.1 0.1
04:40 14.0 12.2 84.1 1018.2 8.2 NW 19.6 W 0.0 0.1
04:45 13.7 12.0 84.9 1018.3 8.5 NNW 16.9 N 0.0 0.1
04:50 13.9 12.3 83.8 1018.4 11.7 WNW 22.3 WNW 0.0 0.3
04:55 14.2 12.5 81.3 1018.5 13.7 WNW 22.3 WSW 0.0 0.9
05:00 14.2 12.5 81.2 1018.5 10.9 WNW 22.3 W 0.0 1.9
05:05 14.1 12.4 81.9 1018.5 7.5 WNW 16.9 WNW 0.0 3.3
05:10 13.8 12.2 83.5 1018.6 8.8 NW 22.3 WNW 0.0 4.9
05:15 13.9 12.3 83.5 1018.6 11.0 NW 19.6 NW 0.0 6.8
05:20 14.1 12.4 81.8 1018.5 8.2 NW 14.2 WNW 0.0 9.1
05:25 13.8 12.2 83.3 1018.5 8.1 WNW 19.6 WNW 0.0 11.7
05:30 13.8 12.2 83.5 1018.6 6.7 NW 11.5 NW 0.0 25.1
05:35 13.6 12.1 84.3 1018.6 7.1 NW 11.5 W 0.0 59.6
05:40 13.6 12.0 84.2 1018.7 5.0 NW 8.8 WNW 0.1 71.8
05:45 13.6 12.0 84.4 1018.7 6.4 NW 14.2 NNW 0.0 79.9
05:50 14.1 12.2 80.1 1018.8 6.4 NW 14.2 NW 0.0 98.5
05:55 14.9 12.5 74.5 1018.9 5.0 NW 11.5 WNW 0.0 112.4
06:00 15.5 12.6 72.8 1018.9 5.5 WNW 11.5 NW 0.0 125.7
06:05 15.9 12.7 71.2 1018.9 6.0 W 11.5 WNW 0.0 138.7
06:10 16.2 12.6 70.0 1018.9 5.4 W 8.8 NW 0.0 154.4
06:15 16.6 12.7 69.3 1018.9 1.4 WNW 6.1 WNW 0.0 168.9
06:20 17.0 12.6 67.0 1019.0 0.3 S 3.4 S 0.0 186.0
06:25 16.6 12.6 69.2 1019.0 0.3 SE 3.4 SE 0.0 202.2
06:30 16.6 12.9 69.6 1019.0 0.1 SW 3.4 SW 0.0 218.3
06:35 16.7 13.6 69.8 1019.1 1.2 SSW 6.1 S 0.0 233.3
06:40 16.6 14.4 70.2 1019.1 0.9 SSW 6.1 SSW 0.0 249.0
06:45 16.9 15.1 70.4 1019.2 2.0 S 6.1 SSE 0.0 265.1
06:50 17.3 15.7 70.0 1019.3 0.5 S 3.4 S 0.0 281.3
06:55 18.1 16.7 65.5 1019.3 0.0 NNE 0.0 S 0.0 297.8
07:00 19.1 17.2 59.1 1019.3 1.3 E 8.8 ESE 0.0 314.1
07:05 19.5 17.7 55.5 1019.3 3.2 ENE 6.1 ENE 0.0 329.7
07:10 20.0 18.6 54.6 1019.4 2.8 ENE 8.8 ENE 0.0 345.2
07:15 20.3 18.9 52.4 1019.4 0.1 ENE 3.4 ENE 0.0 361.1
07:20 20.6 19.2 51.4 1019.4 0.5 S 6.1 SSW 0.0 376.7
07:25 20.4 19.5 53.3 1019.4 0.3 SSW 3.4 S 0.0 391.5
07:30 20.2 19.9 53.2 1019.5 4.0 S 8.8 SSW 0.2 406.2
07:35 20.0 20.1 54.0 1019.6 7.2 S 11.5 SSW 0.0 420.5
07:40 19.9 20.4 53.9 1019.6 7.3 S 14.2 S 0.0 434.9
07:45 19.7 20.5 53.8 1019.6 4.8 S 11.5 S 0.0 450.2
07:50 19.8 20.6 53.1 1019.6 2.8 S 8.8 SSW 0.0 464.8
07:55 20.1 21.0 52.7 1019.6 1.3 SSE 6.1 SSE 0.0 479.4
08:00 20.7 21.4 50.5 1019.5 0.0 NNE 0.0 ESE 0.0 493.7
08:05 21.1 21.5 49.0 1019.5 0.2 E 3.4 ENE 0.0 508.0
08:10 21.8 21.9 48.5 1019.5 0.9 E 6.1 E 0.0 464.8
08:15 22.0 22.3 48.7 1019.6 3.5 ENE 8.8 NE 0.0 535.7
08:20 21.5 22.5 50.2 1019.6 2.1 NE 6.1 ENE 0.0 549.1
08:25 21.8 23.0 49.5 1019.6 3.7 ENE 11.5 ENE 0.0 561.7
08:30 21.7 23.2 51.0 1019.6 3.8 ENE 8.8 ENE 0.0 575.0
08:35 21.6 23.3 53.1 1019.5 5.9 N 14.2 NNE 0.0 588.3
08:40 21.4 23.6 52.3 1019.6 5.1 ESE 11.5 ESE 0.0 600.7
08:45 21.4 24.3 52.0 1019.7 4.1 E 11.5 ENE 0.1 613.4
08:50 21.4 24.6 51.6 1019.8 6.6 E 14.2 E 0.0 625.0
08:55 21.4 25.1 52.6 1019.8 3.1 NE 11.5 ENE 0.0 636.5
09:00 21.7 25.0 53.1 1019.8 5.8 NE 14.2 ENE 0.0 648.1
09:05 21.6 25.3 53.3 1019.8 6.3 NE 14.2 E 0.0 659.5
09:10 21.6 25.6 54.4 1019.7 4.5 ENE 11.5 NNE 0.0 671.3
09:15 21.7 25.8 53.9 1019.8 7.5 ENE 14.2 ENE 0.0 681.9
09:20 21.3 25.9 54.3 1019.8 8.4 ENE 14.2 NNE 0.0 690.5
09:25 21.2 26.5 55.6 1019.9 5.6 ENE 11.5 E 0.0 701.4
09:30 21.3 27.1 56.4 1019.8 7.5 ENE 16.9 ESE 0.0 711.8
09:35 21.5 27.4 55.3 1019.9 5.8 ENE 14.2 ENE 0.0 721.8
09:40 21.7 27.7 55.4 1019.8 6.2 NE 14.2 ENE 0.0 730.7
09:45 21.8 28.5 55.8 1019.9 6.6 ENE 14.2 ENE 0.0 738.2
09:50 21.7 28.9 56.3 1019.9 5.8 ENE 11.5 E 0.0 744.4
09:55 21.7 29.1 56.6 1019.9 9.2 ENE 19.6 E 0.0 753.7
10:00 21.6 29.0 57.9 1020.0 8.0 ENE 16.9 ESE 0.0 761.1
10:05 21.7 28.9 57.4 1020.0 6.5 NE 14.2 NE 0.0 769.7
10:10 22.0 29.3 57.0 1020.0 8.1 ENE 14.2 NE 0.0 777.9
10:15 21.8 29.7 57.3 1020.0 7.6 ENE 14.2 ENE 0.0 784.2
10:20 22.0 30.2 57.1 1020.0 4.7 ENE 11.5 E 0.1 789.6
10:25 22.3 30.2 56.3 1020.0 7.8 ENE 14.2 NE 0.0 797.4
10:30 22.5 30.8 56.4 1020.0 7.2 ENE 16.9 E 0.0 804.0
10:35 22.1 31.4 56.9 1020.0 4.1 ENE 14.2 E 0.0 809.0
10:40 22.4 31.5 55.8 1019.9 7.2 ENE 14.2 E 0.0 814.0
10:45 22.5 31.7 55.5 1020.0 7.6 ENE 16.9 ENE 0.0 818.0
10:50 22.5 31.9 55.8 1019.9 3.8 SE 11.5 ENE 0.0 825.0
10:55 23.1 32.0 55.2 1020.0 4.5 ENE 11.5 ENE 0.0 831.0
11:00 23.1 31.9 53.2 1020.0 8.6 E 14.2 ENE 0.0 539.6
11:05 22.8 32.1 54.4 1020.0 6.5 E 11.5 NE 0.0 570.2
11:10 22.4 30.8 54.7 1020.0 2.7 ESE 8.8 SE 0.0 482.1
11:15 22.5 29.7 55.0 1020.0 8.1 E 19.6 ESE 0.0 450.7
11:20 22.6 29.9 55.0 1020.0 6.3 E 11.5 ESE 0.0 857.0
11:25 23.2 31.3 53.6 1020.0 5.2 NE 14.2 NE 0.0 855.0
11:30 23.6 32.5 52.3 1020.0 4.1 ENE 11.5 ENE 0.1 878.0
11:35 23.9 33.2 51.1 1020.0 6.8 ENE 16.9 ENE 0.0 916.0
11:40 23.9 33.8 51.3 1020.0 6.7 ENE 16.9 NE 0.0 786.0
11:45 23.9 34.5 50.8 1020.0 4.8 E 11.5 ENE 0.0 906.0
11:50 23.8 35.5 51.3 1019.9 6.3 ENE 14.2 ENE 0.0 866.0
11:55 23.7 33.3 50.9 1019.9 8.6 E 19.6 ENE 0.0 221.1
12:00 23.3 30.9 52.5 1019.9 6.3 NE 14.2 NE 0.0 191.3
12:05 23.0 29.2 53.6 1019.9 4.3 NE 14.2 NE 0.0 423.9
12:10 22.9 28.4 52.9 1019.9 8.5 ENE 19.6 ENE 0.0 532.9
12:15 23.1 30.1 51.9 1019.9 6.2 E 14.2 NE 0.0 711.1
12:20 23.4 31.0 51.9 1019.8 5.8 ENE 11.5 NE 0.0 715.9
12:25 23.5 30.5 51.7 1019.8 9.7 E 19.6 E 0.0 347.0
12:30 23.5 29.7 51.3 1019.8 7.4 ENE 14.2 E 0.0 469.3
12:35 23.7 30.7 51.4 1019.8 5.3 ESE 16.9 ESE 0.0 877.0
12:40 24.1 32.0 49.9 1019.8 10.0 ENE 22.3 ENE 0.0 824.0
12:45 23.7 32.3 50.4 1019.9 9.9 E 19.6 SE 0.0 751.8
12:50 23.8 32.8 50.2 1019.9 9.5 E 16.9 E 0.0 493.1
12:55 23.8 31.5 50.6 1019.8 7.7 ENE 19.6 E 0.0 650.4
13:00 23.8 31.6 50.2 1019.8 10.0 ENE 19.6 ENE 0.0 771.3
13:05 24.0 32.4 50.4 1019.8 9.0 ENE 22.3 E 0.0 863.0
13:10 24.0 31.6 49.6 1019.7 8.7 NE 19.6 ENE 0.0 194.9
13:15 23.2 28.9 51.0 1019.8 10.9 E 25.0 E 0.0 167.3
13:20 22.9 27.6 52.7 1019.8 5.8 E 14.2 ENE 0.1 421.0
13:25 23.3 29.0 52.4 1019.8 8.2 E 19.6 E 0.0 662.9
13:30 23.5 29.1 51.1 1019.7 11.3 E 19.6 ENE 0.0 543.5
13:35 23.4 28.4 51.7 1019.7 10.5 E 25.0 E 0.0 461.9
13:40 23.5 28.7 51.6 1019.7 6.8 ENE 14.2 ESE 0.0 678.7
13:45 23.9 28.9 50.9 1019.7 8.5 E 14.2 E 0.0 478.8
13:50 23.9 29.7 51.1 1019.7 7.3 ESE 16.9 SE 0.0 863.0
13:55 23.6 30.2 51.8 1019.7 6.7 ESE 16.9 NE 0.0 411.0
14:00 23.4 29.1 52.9 1019.7 8.7 ESE 14.2 ESE 0.0 248.5
14:05 23.1 28.0 54.5 1019.7 6.5 ESE 11.5 ESE 0.0 336.1
14:10 23.0 27.4 55.0 1019.7 9.1 ESE 14.2 E 0.0 322.5
14:15 22.7 27.4 55.9 1019.8 9.8 ESE 16.9 ESE 0.0 513.0
14:20 22.7 28.4 55.9 1019.7 8.0 SE 14.2 SE 0.0 466.0
14:25 22.9 27.6 55.7 1019.7 8.2 E 16.9 E 0.0 195.0
14:30 23.1 26.8 55.6 1019.8 5.4 E 11.5 ESE 0.0 204.5
14:35 22.7 26.4 56.5 1019.8 6.4 E 11.5 E 0.0 348.8
14:40 22.9 26.8 56.3 1019.7 6.6 ESE 14.2 SE 0.0 217.3
14:45 22.6 26.6 57.3 1019.8 8.2 ESE 14.2 ESE 0.0 277.8
14:50 22.9 27.9 57.6 1019.8 7.7 ESE 14.2 E 0.0 693.2
14:55 23.3 29.5 56.4 1019.8 7.2 ESE 19.6 SSW 0.0 630.8
15:00 23.4 30.4 56.2 1019.8 7.3 ESE 14.2 ESE 0.0 597.0
15:05 23.4 31.2 55.9 1019.8 8.8 SE 16.9 ESE 0.0 671.5
15:10 23.5 32.0 56.5 1019.7 5.5 SE 11.5 E 0.0 581.3
15:15 23.7 31.9 55.9 1019.7 8.5 SE 19.6 ENE 0.0 609.2
15:20 23.6 32.2 56.2 1019.7 8.0 SE 19.6 SSE 0.0 561.8
15:25 23.5 32.3 56.3 1019.7 8.4 SSE 19.6 S 0.0 553.2
15:30 23.3 31.7 56.9 1019.7 6.1 SE 11.5 ESE 0.1 468.8
15:35 23.2 30.7 57.1 1019.7 8.2 SSE 19.6 SSE 0.0 349.0
15:40 22.9 30.6 58.5 1019.6 6.1 ESE 14.2 SSE 0.0 515.6
15:45 23.1 30.5 57.7 1019.6 8.7 ENE 14.2 NE 0.0 469.0
15:50 22.8 29.4 58.7 1019.6 8.7 ENE 14.2 NE 0.0 302.1
15:55 22.7 28.5 59.7 1019.7 6.8 E 14.2 E 0.0 191.3
16:00 22.4 27.0 61.0 1019.7 7.6 ENE 16.9 ENE 0.0 192.7
16:05 22.3 26.7 61.8 1019.6 7.3 ENE 14.2 ENE 0.0 374.4
16:10 22.4 27.1 63.3 1019.6 9.2 E 19.6 E 0.0 349.9
16:15 22.2 27.8 64.8 1019.6 8.9 ENE 16.9 E 0.0 381.4
16:20 22.0 27.1 65.1 1019.6 9.8 E 16.9 E 0.0 217.7
16:25 21.7 26.1 66.1 1019.6 11.0 E 19.6 E 0.0 332.7
16:30 21.5 25.0 66.3 1019.7 9.3 ENE 16.9 ENE 0.0 225.3
16:35 21.4 24.1 67.0 1019.7 8.5 ENE 14.2 ENE 0.0 165.4
16:40 21.3 23.5 67.2 1019.7 7.9 E 14.2 E 0.0 139.0
16:45 21.1 23.2 67.3 1019.8 8.0 E 16.9 ENE 0.0 193.9
16:50 21.1 23.3 67.2 1019.8 8.0 E 14.2 E 0.0 211.0
16:55 21.1 23.3 67.9 1019.8 8.3 E 16.9 NE 0.0 220.8
17:00 21.1 23.1 68.8 1019.7 6.2 ENE 14.2 NE 0.0 127.8
17:05 20.9 22.6 69.8 1019.7 7.8 E 14.2 ENE 0.0 112.1
17:10 20.8 22.4 71.0 1019.7 5.9 E 14.2 ENE 0.0 109.2
17:15 20.9 22.1 70.5 1019.7 6.4 E 11.5 E 0.0 106.3
17:20 20.8 21.9 71.6 1019.7 5.1 ENE 8.8 ENE 0.0 92.6
17:25 20.7 21.5 72.7 1019.7 5.5 ENE 11.5 E 0.0 72.2
17:30 20.5 21.0 74.1 1019.7 6.4 E 11.5 ENE 0.0 55.9
17:35 20.3 20.5 75.5 1019.7 4.1 NE 11.5 ENE 0.0 41.0
17:40 20.2 20.1 76.6 1019.7 5.6 E 11.5 ESE 0.0 34.3
17:45 20.1 19.7 76.8 1019.7 4.7 E 8.8 ENE 0.0 31.8
17:50 20.0 19.3 77.5 1019.7 1.1 ENE 6.1 E 0.0 29.5
17:55 19.8 19.1 78.3 1019.7 0.6 ENE 6.1 NE 0.0 27.0
18:00 19.6 18.8 79.0 1019.8 1.6 ENE 6.1 E 0.0 25.9
18:05 19.5 18.5 79.5 1019.8 2.0 ENE 6.1 E 0.0 24.9
18:10 19.5 18.3 79.2 1019.8 2.8 S 8.8 SSW 0.0 23.3
18:15 19.4 18.1 79.6 1019.8 0.7 N 6.1 NW 0.0 20.9
18:20 19.3 17.8 80.2 1019.9 2.5 SSE 8.8 S 0.0 18.8
18:25 19.3 17.7 80.0 1019.9 6.4 S 8.8 SSW 0.0 15.9
18:30 19.2 17.7 80.4 1019.9 5.9 S 8.8 S 0.0 13.0
18:35 19.2 17.6 80.8 1019.9 5.0 S 8.8 S 0.0 9.4
18:40 19.1 17.4 81.5 1020.0 4.4 S 8.8 S 0.0 7.2
18:45 19.0 17.3 82.2 1020.1 6.0 S 8.8 S 0.0 4.7
18:50 18.9 17.2 83.2 1020.1 5.5 S 8.8 S 0.0 3.4
18:55 18.8 17.1 83.8 1020.2 5.9 S 11.5 S 0.0 2.0
19:00 18.8 17.0 83.8 1020.2 4.3 SSW 8.8 SSW 0.0 1.1
19:05 18.7 16.8 83.9 1020.3 3.4 SSW 8.8 SSW 0.0 0.6
19:10 18.7 16.7 84.0 1020.4 4.4 SW 8.8 SSW 0.0 0.3
19:15 18.7 16.6 84.4 1020.4 3.5 SSW 8.8 SW 0.0 0.2
19:20 18.7 16.6 83.8 1020.4 2.4 SW 8.8 SW 0.0 0.2
19:25 18.6 16.4 83.6 1020.5 1.1 WSW 6.1 SW 0.0 0.2
19:30 18.5 16.1 84.0 1020.5 1.1 SW 6.1 SW 0.0 0.2
19:35 18.3 15.9 84.5 1020.6 3.9 WSW 6.1 WSW 0.0 0.2
19:40 18.1 15.7 85.0 1020.6 3.8 WSW 6.1 WSW 0.0 0.1
19:45 18.0 15.6 85.6 1020.6 5.5 WSW 8.8 W 0.0 0.1
19:50 17.8 15.5 86.3 1020.7 4.0 WSW 8.8 WSW 0.0 0.1
19:55 17.8 15.4 86.2 1020.7 4.1 WSW 8.8 WSW 0.0 0.1
20:00 17.6 15.3 86.4 1020.7 4.2 WSW 6.1 W 0.0 0.1
20:05 17.6 15.1 86.7 1020.8 4.7 WSW 8.8 SW 0.0 0.1
20:10 17.6 15.0 86.2 1020.9 5.7 WSW 8.8 WSW 0.0 0.1
20:15 17.6 15.0 85.8 1020.9 4.0 SW 8.8 WSW 0.0 0.1
20:20 17.5 15.0 85.5 1020.9 5.5 WSW 8.8 WSW 0.0 0.1
20:25 17.4 15.0 85.8 1020.9 5.4 WSW 8.8 W 0.0 0.1
20:30 17.3 14.9 86.2 1021.0 5.5 WSW 8.8 WSW 0.0 0.1
20:35 17.2 14.8 86.8 1021.0 4.4 WSW 8.8 SW 0.0 0.1
Màxima 24.2 35.5 88.7 1021.0 13.7 WNW 25.0 E 0.2 916.0
Mínima 12.3 10.0 48.5 1017.6
Total 1.3